Eastborough, Kansas
Current Conditions -  °F | °C
As of 9:58 PM on Thursday 30 Oct 2014 (Local Time) from KIAB Reporting Station
Clear Clear  
Wind Chill: 57°   Ceiling: Unl
Heat Index: 57°   Visibility: 10mi
Dew Point: 33°   Wind: 13mph
Humidity: 40%   Direction: 350°N
Pressure: 30.23"   Gusts: NA
Location:  37.6676°N, 97.2266°W
Report Text: KIAB 310258Z AUTO 35011KT 10SM CLR 14/01 A3023 RMK AO2 SLP237 T01410006 52026
Loading
Personal Weather Stations






























Interactive Weather Map
Tropical Storm Tracking
New forecast layout! Learn more

10-Day Weather Forecast

Advertisements
Track Severe Weather on mobile